< < Back
Terminal Aerodrome Forecast


Current Version              Previous Versions:   1  2  3  4  5  6  7  8  9  

Terminal Aerodrome Forecast

643
FTUS42 KMLB 300529
TAFMCO
TAF
KMCO 300529Z 3006/3106 VRB02KT P6SM FEW060 BKN100 BKN130
     FM301400 VRB04KT P6SM SCT025 SCT050
     FM302100 06008KT P6SM VCTS SCT050CB BKN250
     FM310000 12006KT P6SM FEW030 BKN120=

Latest METAR

676
SAUS70 KWBC 301200 RRB
MTRMCO
METAR KMCO 301153Z 00000KT 10SM FEW070 FEW120 FEW250 24/20 A3002 RMK AO2
SLP163 70035 T02390200 10239 20217 53006


USA.gov is the U.S. government's official web portal to all federal, state and local government web resources and services.